Hauptseite
METAR-TAF:

METAR-TAF

Flughäfen :

Eleftherios-Venizelos-Flughafen Athen

Athen, Griechenland

Breite: 37-56N, Länge: 023-56E, Höhe: 94 m

Beobachtung

Neuester Wetterbericht von vor 16 Minuten, um 00:50 UTC
Windstille
Temperatur 14°C
Luftfeuchtigkeit 88%
Luftdruck 1016 hPa
Sichtweite 10 km oder mehr
Leicht bewölkt in der Höhe von 3000 ft

METAR: LGAV 190050Z 00000KT 9999 FEW030 14/12 Q1016 NOSIG

Zeit: 04:06 (01:06 UTC)

Prognose

Neuester Wetterbericht von vor 2 Stunden und 6 Minuten, um 23:00 UTC
Gültige Prognose vom 19 um 00 UTC bis 19 um 24 UTC
Wind 12 kt aus Nord
Sichtweite 10 km oder mehr
Leicht bewölkt in der Höhe von 1800 ft
Aufgelockert bewölkt in der Höhe von 3500 ft

TAF: LGAV 182300Z 1900/1924 01012KT 9999 FEW018 SCT035

Wetterbeobachtungen und Prognosen von mehr als 4000 Flughäfen (METAR und TAF Bericht).

Die verfügbaren Stationen werden durch gelbe und rote Markierungen auf der Karte dargestellt.

Führen Sie die Maus auf sie, um den Namen der Station zu sehen.

Darauf klicken, um die Beobachtung von Wetterbeobachtungen und Prognosen zu sehen.

Um die Karte zu ändern : klicken Sie auf den grünen Tasten mit einem schwarzen Kreuz Zum Vergrößern, auf den grünen Button mit einem Gedankenstrich zu verkleinern, oder auf die grünen Pfeile für benachbarte Karten.


METAR-TAF: